createdAt,value
2019-01-16T00:02:37.511Z,68.82
2019-01-16T00:05:28.269Z,68.19
2019-01-16T00:08:15.500Z,67.86
2019-01-16T00:11:12.956Z,68.17
2019-01-16T00:13:54.705Z,68.30
2019-01-16T00:16:41.948Z,68.26
2019-01-16T00:19:27.911Z,67.66
2019-01-16T00:22:16.362Z,68.12
2019-01-16T00:25:07.599Z,66.88
2019-01-16T00:27:54.953Z,67.97
2019-01-16T00:30:43.404Z,68.03
2019-01-16T00:33:27.650Z,68.39
2019-01-16T00:36:28.131Z,67.60
2019-01-16T00:39:19.448Z,67.71
2019-01-16T00:42:05.775Z,66.88
2019-01-16T00:44:47.282Z,67.21
2019-01-16T00:47:24.903Z,68.05
2019-01-16T00:50:22.441Z,67.68
2019-01-16T00:53:00.448Z,68.03
2019-01-16T00:55:49.474Z,67.72
2019-01-16T00:58:49.276Z,67.72
2019-01-16T01:01:33.447Z,67.38
2019-01-16T01:04:24.179Z,67.67
2019-01-16T01:10:31.934Z,67.81
2019-01-16T01:13:26.936Z,67.65
2019-01-16T01:16:20.240Z,68.29
2019-01-16T01:19:07.283Z,67.55
2019-01-16T01:22:01.931Z,66.83
2019-01-16T01:24:45.178Z,67.80
2019-01-16T01:27:36.869Z,67.85
2019-01-16T01:30:35.402Z,66.83
2019-01-16T01:33:22.516Z,68.38
2019-01-16T01:36:20.081Z,68.01
2019-01-16T01:39:03.517Z,67.65
2019-01-16T01:41:59.730Z,67.69
2019-01-16T01:44:47.957Z,67.55
2019-01-16T01:47:35.219Z,67.69
2019-01-16T01:50:23.991Z,67.66
2019-01-16T01:53:15.562Z,67.55
2019-01-16T01:56:06.774Z,67.65
2019-01-16T01:58:53.905Z,67.68
2019-01-16T02:01:47.345Z,67.60
2019-01-16T02:04:34.439Z,67.63
2019-01-16T02:07:21.965Z,67.47
2019-01-16T02:10:11.149Z,67.22
2019-01-16T02:12:58.277Z,67.22
2019-01-16T02:15:36.271Z,67.56
2019-01-16T02:18:27.809Z,67.44
2019-01-16T02:21:10.606Z,67.40
2019-01-16T02:24:00.076Z,67.06
2019-01-16T02:26:51.517Z,67.32
2019-01-16T02:29:39.656Z,67.07
2019-01-16T02:32:32.688Z,66.79
2019-01-16T02:35:19.899Z,67.33
2019-01-16T02:38:20.584Z,67.47
2019-01-16T02:41:01.214Z,66.98
2019-01-16T02:43:47.007Z,67.18
2019-01-16T02:46:41.499Z,67.33
2019-01-16T02:49:35.740Z,67.01
2019-01-16T02:52:27.044Z,67.06
2019-01-16T02:55:14.039Z,67.42
2019-01-16T02:58:10.277Z,67.04
2019-01-16T03:01:17.155Z,66.82
2019-01-16T03:04:16.432Z,66.84
2019-01-16T03:07:02.029Z,66.87
2019-01-16T03:09:50.394Z,66.67
2019-01-16T03:12:31.634Z,67.14
2019-01-16T03:15:09.026Z,66.69
2019-01-16T03:17:51.636Z,67.08
2019-01-16T03:20:33.433Z,66.91
2019-01-16T03:23:27.809Z,66.68
2019-01-16T03:26:19.098Z,66.70
2019-01-16T03:29:25.925Z,66.35
2019-01-16T03:32:10.573Z,66.87
2019-01-16T03:35:01.808Z,67.11
2019-01-16T03:37:40.419Z,66.54
2019-01-16T03:40:28.456Z,66.75
2019-01-16T03:43:08.804Z,66.37
2019-01-16T03:45:53.579Z,66.76
2019-01-16T03:48:40.853Z,66.70
2019-01-16T03:51:35.615Z,66.51
2019-01-16T03:54:21.510Z,66.54
2019-01-16T03:57:08.845Z,66.91
2019-01-16T04:00:03.356Z,66.76
2019-01-16T04:02:51.860Z,66.58
2019-01-16T04:05:38.919Z,66.60
2019-01-16T04:08:17.781Z,65.90
2019-01-16T04:11:15.157Z,66.40
2019-01-16T04:14:02.127Z,65.71
2019-01-16T04:16:49.642Z,65.81
2019-01-16T04:19:45.609Z,66.44
2019-01-16T04:22:45.993Z,65.60
2019-01-16T04:25:43.380Z,65.74
2019-01-16T04:28:18.030Z,65.27
2019-01-16T04:31:06.468Z,65.55
2019-01-16T04:33:46.928Z,65.58
2019-01-16T04:36:33.085Z,65.67
2019-01-16T04:39:19.848Z,65.52
2019-01-16T04:42:07.107Z,65.12
2019-01-16T04:44:46.183Z,65.47
2019-01-16T04:47:27.491Z,65.18
2019-01-16T04:50:14.803Z,65.18
2019-01-16T04:53:01.226Z,65.28
2019-01-16T04:55:59.030Z,65.68
2019-01-16T04:58:53.577Z,65.50
2019-01-16T05:02:00.243Z,65.12
2019-01-16T05:04:57.337Z,65.14
2019-01-16T05:07:44.672Z,64.91
2019-01-16T05:10:42.073Z,64.77
2019-01-16T05:13:19.981Z,64.68
2019-01-16T05:16:05.656Z,65.12
2019-01-16T05:18:52.657Z,65.00
2019-01-16T05:21:33.241Z,64.62
2019-01-16T05:24:11.748Z,64.83
2019-01-16T05:26:52.408Z,65.42
2019-01-16T05:29:39.469Z,64.81
2019-01-16T05:32:36.474Z,65.13
2019-01-16T05:35:28.305Z,65.11
2019-01-16T05:38:16.105Z,64.99
2019-01-16T05:41:16.804Z,64.65
2019-01-16T05:44:08.003Z,64.79
2019-01-16T05:46:55.161Z,64.70
2019-01-16T05:49:46.654Z,65.01
2019-01-16T05:52:23.132Z,65.23
2019-01-16T05:55:26.885Z,65.16
2019-01-16T05:58:09.522Z,64.90
2019-01-16T06:01:00.983Z,64.77
2019-01-16T06:03:52.311Z,64.98
2019-01-16T06:06:43.559Z,65.14
2019-01-16T06:09:33.345Z,65.17
2019-01-16T06:12:20.362Z,64.87
2019-01-16T06:15:07.885Z,64.95
2019-01-16T06:18:11.552Z,65.21
2019-01-16T06:21:00.018Z,64.32
2019-01-16T06:23:47.089Z,64.76
2019-01-16T06:26:29.441Z,64.64
2019-01-16T06:29:16.391Z,64.41
2019-01-16T06:32:03.131Z,64.45
2019-01-16T06:34:50.212Z,64.40
2019-01-16T06:37:48.087Z,64.65
2019-01-16T06:40:25.990Z,64.94
2019-01-16T06:43:09.528Z,64.29
2019-01-16T06:45:55.209Z,64.37
2019-01-16T06:48:42.474Z,64.23
2019-01-16T06:51:40.085Z,64.19
2019-01-16T06:54:21.990Z,64.06
2019-01-16T06:57:14.335Z,64.05
2019-01-16T07:00:02.723Z,64.23
2019-01-16T07:02:54.137Z,64.20
2019-01-16T07:05:36.299Z,64.08
2019-01-16T07:08:35.926Z,64.48
2019-01-16T07:11:25.575Z,64.56
2019-01-16T07:14:14.753Z,64.22
2019-01-16T07:17:06.020Z,64.38
2019-01-16T07:19:57.304Z,64.15
2019-01-16T07:22:38.160Z,64.59
2019-01-16T07:25:23.808Z,64.47
2019-01-16T07:28:11.362Z,64.29
2019-01-16T07:30:59.803Z,63.82
2019-01-16T07:33:46.294Z,64.44
2019-01-16T07:36:41.550Z,64.44
2019-01-16T07:39:28.695Z,64.54
2019-01-16T07:42:16.351Z,64.69
2019-01-16T07:45:10.368Z,64.58
2019-01-16T07:47:52.852Z,64.07
2019-01-16T07:51:05.424Z,63.72
2019-01-16T07:54:15.205Z,63.84
2019-01-16T07:57:08.489Z,64.42
2019-01-16T08:00:00.218Z,65.07
2019-01-16T08:03:01.052Z,64.38
2019-01-16T08:06:04.693Z,64.09
2019-01-16T08:08:43.893Z,63.70
2019-01-16T08:11:43.392Z,64.28
2019-01-16T08:14:31.655Z,64.03
2019-01-16T08:17:18.793Z,64.28
2019-01-16T08:20:08.646Z,63.84
2019-01-16T08:23:02.894Z,63.69
2019-01-16T08:25:49.137Z,63.69
2019-01-16T08:28:37.582Z,64.39
2019-01-16T08:31:27.688Z,64.33
2019-01-16T08:34:10.702Z,63.87
2019-01-16T08:37:01.981Z,63.94
2019-01-16T08:40:05.755Z,63.81
2019-01-16T08:42:53.278Z,64.11
2019-01-16T08:45:37.083Z,64.29
2019-01-16T08:48:31.461Z,64.64
2019-01-16T08:51:23.366Z,64.72
2019-01-16T08:54:10.619Z,64.33
2019-01-16T08:57:05.291Z,65.23
2019-01-16T08:59:46.188Z,66.55
2019-01-16T09:02:36.105Z,65.86
2019-01-16T09:05:24.482Z,66.45
2019-01-16T09:08:07.738Z,65.16
2019-01-16T09:10:55.176Z,67.35
2019-01-16T09:13:48.527Z,67.26
2019-01-16T09:16:46.051Z,66.98
2019-01-16T09:19:33.146Z,66.72
2019-01-16T09:22:20.436Z,68.32
2019-01-16T09:25:24.214Z,68.03
2019-01-16T09:28:12.067Z,67.69
2019-01-16T09:31:15.315Z,72.95
2019-01-16T09:34:06.683Z,75.64
2019-01-16T09:36:46.741Z,75.35
2019-01-16T09:39:33.876Z,63.55
2019-01-16T09:42:37.751Z,71.64
2019-01-16T09:45:38.993Z,73.88
2019-01-16T09:48:36.488Z,76.65
2019-01-16T09:51:24.065Z,68.52
2019-01-16T09:54:12.466Z,78.69
2019-01-16T09:56:59.699Z,79.20
2019-01-16T09:59:48.180Z,79.67
2019-01-16T10:02:28.379Z,73.84
2019-01-16T10:08:36.448Z,79.96
2019-01-16T10:11:30.885Z,80.78
2019-01-16T10:14:19.321Z,80.60
2019-01-16T10:17:07.714Z,81.89
2019-01-16T10:20:04.028Z,84.19
2019-01-16T10:22:52.503Z,85.01
2019-01-16T10:25:49.760Z,84.42
2019-01-16T10:28:27.636Z,85.51
2019-01-16T10:31:25.067Z,84.67
2019-01-16T10:34:19.605Z,85.14
2019-01-16T10:37:00.882Z,86.81
2019-01-16T10:39:49.285Z,86.30
2019-01-16T10:42:43.546Z,87.56
2019-01-16T10:45:26.740Z,87.09
2019-01-16T10:48:05.454Z,87.39
2019-01-16T10:50:52.577Z,87.54
2019-01-16T10:53:44.172Z,89.55
2019-01-16T10:56:44.971Z,90.04
2019-01-16T10:59:32.224Z,90.59
2019-01-16T11:02:20.612Z,90.78
2019-01-16T11:05:08.308Z,91.32
2019-01-16T11:07:51.154Z,91.53
2019-01-16T11:10:39.610Z,91.54
2019-01-16T11:13:28.067Z,91.33
2019-01-16T11:16:34.759Z,91.74
2019-01-16T11:19:25.979Z,91.88
2019-01-16T11:22:12.820Z,86.92
2019-01-16T11:24:51.062Z,90.91
2019-01-16T11:27:38.232Z,91.91
2019-01-16T11:30:26.851Z,92.42
2019-01-16T11:33:18.416Z,92.72
2019-01-16T11:36:10.117Z,92.98
2019-01-16T11:39:10.741Z,93.21
2019-01-16T11:42:02.040Z,93.37
2019-01-16T11:44:48.877Z,93.55
2019-01-16T11:47:27.890Z,94.42
2019-01-16T11:50:22.236Z,95.51
2019-01-16T11:53:08.876Z,96.46
2019-01-16T11:56:03.370Z,97.06
2019-01-16T11:58:42.330Z,97.97
2019-01-16T12:01:29.519Z,99.03
2019-01-16T12:04:20.909Z,99.62
2019-01-16T12:07:21.601Z,100.00
2019-01-16T12:10:08.778Z,100.00
2019-01-16T12:12:47.011Z,100.00
2019-01-16T12:15:27.957Z,100.00
2019-01-16T12:18:16.433Z,100.00
2019-01-16T12:20:57.328Z,100.00
2019-01-16T12:23:44.624Z,100.00
2019-01-16T12:26:35.946Z,100.00
2019-01-16T12:29:27.488Z,100.00
2019-01-16T12:32:14.649Z,100.00
2019-01-16T12:34:59.441Z,100.00
2019-01-16T12:37:46.698Z,100.00
2019-01-16T12:40:41.280Z,100.00
2019-01-16T12:43:28.469Z,100.00
2019-01-16T12:46:15.821Z,100.00
2019-01-16T12:49:03.224Z,100.00
2019-01-16T12:51:42.978Z,100.00
2019-01-16T12:54:30.243Z,100.00
2019-01-16T12:57:17.525Z,100.00
2019-01-16T13:00:05.978Z,100.00
2019-01-16T13:02:53.228Z,100.00
2019-01-16T13:05:50.936Z,100.00
2019-01-16T13:08:34.943Z,98.48
2019-01-16T13:11:16.229Z,97.07
2019-01-16T13:14:03.265Z,100.00
2019-01-16T13:16:51.651Z,99.93
2019-01-16T13:19:43.124Z,100.00
2019-01-16T13:22:31.875Z,94.38
2019-01-16T13:25:18.840Z,91.34
2019-01-16T13:28:08.871Z,94.91
2019-01-16T13:31:01.440Z,92.77
2019-01-16T13:33:39.925Z,91.53
2019-01-16T13:36:29.198Z,81.50
2019-01-16T13:39:18.056Z,82.19
2019-01-16T13:42:21.422Z,84.21
2019-01-16T13:45:01.712Z,84.48
2019-01-16T13:47:52.998Z,76.60
2019-01-16T13:50:41.447Z,81.69
2019-01-16T13:53:29.897Z,73.77
2019-01-16T13:56:20.999Z,75.58
2019-01-16T13:59:03.917Z,75.58
2019-01-16T14:02:01.670Z,75.86
2019-01-16T14:04:48.928Z,73.71
2019-01-16T14:07:43.331Z,75.47
2019-01-16T14:10:25.971Z,75.24
2019-01-16T14:13:14.810Z,73.34
2019-01-16T14:15:54.308Z,75.77
2019-01-16T14:18:45.796Z,75.92
2019-01-16T14:21:28.696Z,73.73
2019-01-16T14:24:15.829Z,73.08
2019-01-16T14:26:58.673Z,75.21
2019-01-16T14:29:49.931Z,75.08
2019-01-16T14:32:28.376Z,75.61
2019-01-16T14:35:34.697Z,74.73
2019-01-16T14:38:29.349Z,74.33
2019-01-16T14:41:27.095Z,75.10
2019-01-16T14:44:30.435Z,74.36
2019-01-16T14:47:12.521Z,74.74
2019-01-16T14:50:13.120Z,73.37
2019-01-16T14:53:19.929Z,73.87
2019-01-16T14:56:08.424Z,74.68
2019-01-16T14:58:53.684Z,74.04
2019-01-16T15:01:48.432Z,74.93
2019-01-16T15:04:42.628Z,74.39
2019-01-16T15:07:39.791Z,74.39
2019-01-16T15:10:20.185Z,73.85
2019-01-16T15:13:14.445Z,74.82
2019-01-16T15:15:59.058Z,74.91
2019-01-16T15:18:45.935Z,74.64
2019-01-16T15:21:25.922Z,74.40
2019-01-16T15:24:14.369Z,72.84
2019-01-16T15:27:17.737Z,73.55
2019-01-16T15:29:57.348Z,73.45
2019-01-16T15:33:00.976Z,73.53
2019-01-16T15:35:49.435Z,73.40
2019-01-16T15:38:32.710Z,73.22
2019-01-16T15:41:21.259Z,73.05
2019-01-16T15:44:08.229Z,72.88
2019-01-16T15:47:05.841Z,72.57
2019-01-16T15:49:54.253Z,72.70
2019-01-16T15:52:35.516Z,72.55
2019-01-16T15:55:16.702Z,72.35
2019-01-16T15:58:07.965Z,71.96
2019-01-16T16:00:54.922Z,71.71
2019-01-16T16:03:42.269Z,71.42
2019-01-16T16:06:33.800Z,70.57
2019-01-16T16:09:20.607Z,70.15
2019-01-16T16:12:07.747Z,70.78
2019-01-16T16:14:53.765Z,70.90
2019-01-16T16:17:38.734Z,70.29
2019-01-16T16:20:29.137Z,70.27
2019-01-16T16:23:12.144Z,70.00
2019-01-16T16:26:11.747Z,70.46
2019-01-16T16:28:50.431Z,69.58
2019-01-16T16:31:48.127Z,70.04
2019-01-16T16:34:40.619Z,70.09
2019-01-16T16:37:23.020Z,69.23
2019-01-16T16:39:59.861Z,69.08
2019-01-16T16:42:50.191Z,69.33
2019-01-16T16:45:38.585Z,69.43
2019-01-16T16:48:20.365Z,61.16
2019-01-16T16:51:08.002Z,67.34
2019-01-16T16:54:11.676Z,68.44
2019-01-16T16:56:52.037Z,68.19
2019-01-16T16:59:40.593Z,68.61
2019-01-16T17:02:36.092Z,67.62
2019-01-16T17:05:35.381Z,67.67
2019-01-16T17:08:18.571Z,67.71
2019-01-16T17:10:58.677Z,67.25
2019-01-16T17:13:50.157Z,67.38
2019-01-16T17:16:35.799Z,67.25
2019-01-16T17:19:30.479Z,66.97
2019-01-16T17:22:18.853Z,66.94
2019-01-16T17:25:02.768Z,66.80
2019-01-16T17:27:56.607Z,66.54
2019-01-16T17:30:45.193Z,66.34
2019-01-16T17:33:32.326Z,66.65
2019-01-16T17:36:20.794Z,66.59
2019-01-16T17:39:07.833Z,66.59
2019-01-16T17:41:57.576Z,66.54
2019-01-16T17:44:49.160Z,66.75
2019-01-16T17:47:40.640Z,66.25
2019-01-16T17:50:38.398Z,66.08
2019-01-16T17:53:29.968Z,65.51
2019-01-16T17:56:23.938Z,63.69
2019-01-16T17:59:15.521Z,65.40
2019-01-16T18:01:55.265Z,65.41
2019-01-16T18:04:38.320Z,65.42
2019-01-16T18:07:18.526Z,65.30
2019-01-16T18:10:05.690Z,65.29
2019-01-16T18:12:44.846Z,64.51
2019-01-16T18:15:35.351Z,65.16
2019-01-16T18:18:29.145Z,65.22
2019-01-16T18:21:20.506Z,65.27
2019-01-16T18:24:09.719Z,64.90
2019-01-16T18:26:58.240Z,64.84
2019-01-16T18:29:50.606Z,65.17
2019-01-16T18:32:46.095Z,64.93
2019-01-16T18:35:34.396Z,64.58
2019-01-16T18:38:21.642Z,64.72
2019-01-16T18:41:25.219Z,64.51
2019-01-16T18:44:25.880Z,64.80
2019-01-16T18:47:12.899Z,64.61
2019-01-16T18:50:06.862Z,64.47
2019-01-16T18:52:51.729Z,64.44
2019-01-16T18:55:32.205Z,64.83
2019-01-16T18:58:38.958Z,64.55
2019-01-16T19:01:27.438Z,64.38
2019-01-16T19:04:10.871Z,64.41
2019-01-16T19:06:57.858Z,64.42
2019-01-16T19:09:45.081Z,64.02
2019-01-16T19:12:36.576Z,64.30
2019-01-16T19:15:26.483Z,64.36
2019-01-16T19:18:07.248Z,64.24
2019-01-16T19:20:47.168Z,64.06
2019-01-16T19:23:41.478Z,64.31
2019-01-16T19:26:30.032Z,63.92
2019-01-16T19:29:17.144Z,64.09
2019-01-16T19:32:08.811Z,64.06
2019-01-16T19:34:48.591Z,64.15
2019-01-16T19:37:35.752Z,64.02
2019-01-16T19:40:26.194Z,63.92
2019-01-16T19:43:12.201Z,64.01
2019-01-16T19:46:15.471Z,64.02
2019-01-16T19:49:05.133Z,64.01
2019-01-16T19:51:52.371Z,63.87
2019-01-16T19:54:40.437Z,63.80
2019-01-16T19:57:20.030Z,63.67
2019-01-16T20:00:07.154Z,63.68
2019-01-16T20:03:10.893Z,63.45
2019-01-16T20:06:02.518Z,63.46
2019-01-16T20:09:09.375Z,63.13
2019-01-16T20:12:03.722Z,63.33
2019-01-16T20:14:48.916Z,63.48
2019-01-16T20:17:42.747Z,63.45
2019-01-16T20:20:34.397Z,63.55
2019-01-16T20:23:18.897Z,63.37
2019-01-16T20:26:03.984Z,63.45
2019-01-16T20:28:52.463Z,63.37
2019-01-16T20:31:32.796Z,63.44
2019-01-16T20:34:30.221Z,63.36
2019-01-16T20:37:30.652Z,63.29
2019-01-16T20:40:14.788Z,63.36
2019-01-16T20:42:54.764Z,63.33
2019-01-16T20:45:41.884Z,63.12
2019-01-16T20:48:38.486Z,63.14
2019-01-16T20:51:23.876Z,63.25
2019-01-16T20:54:18.707Z,63.16
2019-01-16T20:57:07.168Z,62.88
2019-01-16T20:59:55.644Z,63.01
2019-01-16T21:02:42.610Z,63.00
2019-01-16T21:05:23.887Z,63.16
2019-01-16T21:08:21.675Z,63.08
2019-01-16T21:11:08.802Z,63.07
2019-01-16T21:14:00.351Z,63.15
2019-01-16T21:16:58.152Z,62.89
2019-01-16T21:19:47.607Z,62.92
2019-01-16T21:22:42.390Z,62.73
2019-01-16T21:25:30.478Z,62.24
2019-01-16T21:28:17.592Z,62.05
2019-01-16T21:31:05.721Z,61.87
2019-01-16T21:33:53.021Z,62.13
2019-01-16T21:36:47.499Z,61.65
2019-01-16T21:39:29.325Z,60.89
2019-01-16T21:42:20.807Z,61.51
2019-01-16T21:45:08.075Z,61.74
2019-01-16T21:47:59.030Z,61.83
